Current | Forecast
Updated: 1:30 PM +05 on June 29, 2017
Observed at Perm' Airport, Russia
Temperature 70°F
Humidity 46%
Dew Point 48°F
Wind West at 16 mph
Pressure 29.77 in (Steady)
Conditions Scattered Clouds
Visibility 6.2 miles
UV 7 out of 16
Clouds Scattered Clouds (SCT) : 4100 ft
Yesterday's Maximum 73°F
Yesterday's Minimum 52°F approx.
Yesterday's Heating Degree Days 2 approx.
Sunrise4:14 AM +05
Sunset10:11 PM +05
Moon Rise11:09 AM +05
Moon Set12:26 AM +05
Moon PhaseMoon Phase
Waxing Crescent
Raw METARMETAR USPP 290830Z 26007MPS 9999 SCT041CB 21/09 Q1008 R21/090060 NOSIG RMK QFE745


Monday
. High: 71° F.
Tuesday
. High: 71° F.
Wednesday
. High: 75° F.
Thursday
. High: 53° F.
Friday
. High: 51° F.
Saturday
. High: 55° F.
Sunday
. High: 53° F.
Monday
. High: 55° F.

Units: English | Metric

Find the Weather for any City, State or Zipcode, or Country:

U.S. State List | Severe Weather | Tropical Storms | Ski Conditions
United States | Canada | Central America | South America | Asia | Europe | Australia | Africa | Islands

Weather Underground

© Copyright 2017
The Weather Company, LLC